Etusivu
METAR-TAF:

METAR-TAF

Lentoasemat :

Napakiak, Alaska, Yhdysvallat

Leveyspiiri: 60-41-25N, Pituuspiiri: 161-58-43W, korkeus merenpinnasta: 5 m

Tämänhetkinen sää

Tämä raportti tehtiin 35 minuuttia sitten, kello 13.56 UTC
Tuuli 4 kn lännestä/lounaasta
Lämpötila 7°C
Kosteus 93%
Ilmanpaine 1014 hPa
Näkyvyys: 16.1 km
Pilvistä 500 ft:n korkeudessa

METAR: PANA 121356Z AUTO 25004KT 10SM OVC005 07/06 A2994 RMK AO2 SLP139 T00670056 TSNO

Aika: 06:31 (14:31 UTC)


TAF: puuttuu

Säähavainnot ja -ennusteet yli 4000 lentoasemalta (METAR- ja TAF-raportit).

Käytössä olevat sääasemat on merkitty karttaan keltaisilla ja punaisilla pisteillä.

Aseta hiiri pisteen päälle nähdäksesi sääaseman nimen.

Klikkaa sitten nähdäksesi säähavainnot ja -ennusteet.

Kartan vaihtaminen: klikkaa mustalla rastilla varustettuja vihreitä pisteitä, niin voit zoomata sisään; viivalla varustettua vihreää pistettä, niin voit zoomata ulos tai vihreitä nuolia, niin pääset viereisille kartoille.


METAR-TAF: